createdAt,value
2019-03-11T00:01:13.766Z,53.80
2019-03-11T00:03:42.937Z,53.64
2019-03-11T00:06:11.983Z,53.56
2019-03-11T00:08:41.071Z,53.59
2019-03-11T00:11:10.205Z,53.58
2019-03-11T00:13:39.349Z,53.66
2019-03-11T00:16:08.498Z,53.70
2019-03-11T00:18:37.664Z,53.60
2019-03-11T00:21:06.736Z,53.56
2019-03-11T00:23:35.864Z,53.66
2019-03-11T00:26:04.967Z,53.63
2019-03-11T00:28:34.045Z,53.42
2019-03-11T00:31:03.097Z,53.08
2019-03-11T00:33:32.180Z,52.78
2019-03-11T00:36:01.259Z,53.02
2019-03-11T00:38:30.332Z,52.83
2019-03-11T00:40:59.380Z,52.75
2019-03-11T00:43:28.544Z,52.64
2019-03-11T00:45:57.594Z,52.27
2019-03-11T00:48:26.664Z,52.26
2019-03-11T00:50:55.791Z,52.18
2019-03-11T00:53:24.855Z,51.85
2019-03-11T00:55:53.987Z,51.94
2019-03-11T00:58:23.134Z,51.96
2019-03-11T01:00:52.270Z,51.77
2019-03-11T01:03:21.355Z,51.62
2019-03-11T01:05:50.480Z,51.35
2019-03-11T01:08:19.645Z,51.31
2019-03-11T01:10:48.778Z,51.35
2019-03-11T01:13:18.038Z,51.71
2019-03-11T01:15:47.126Z,52.01
2019-03-11T01:18:16.196Z,52.33
2019-03-11T01:20:45.252Z,52.71
2019-03-11T01:23:14.339Z,53.01
2019-03-11T01:25:43.447Z,52.97
2019-03-11T01:28:12.501Z,53.20
2019-03-11T01:30:41.633Z,53.39
2019-03-11T01:33:10.718Z,53.49
2019-03-11T01:35:39.852Z,53.62
2019-03-11T01:38:08.947Z,53.71
2019-03-11T01:40:38.039Z,53.84
2019-03-11T01:43:07.047Z,53.90
2019-03-11T01:45:36.112Z,53.94
2019-03-11T01:48:05.151Z,53.99
2019-03-11T01:50:34.257Z,54.13
2019-03-11T01:53:03.290Z,53.94
2019-03-11T01:55:32.363Z,53.94
2019-03-11T01:58:01.384Z,53.95
2019-03-11T02:00:30.423Z,53.96
2019-03-11T02:02:59.714Z,53.79
2019-03-11T02:05:28.820Z,53.80
2019-03-11T02:07:57.898Z,53.67
2019-03-11T02:10:26.940Z,53.62
2019-03-11T02:12:56.022Z,53.65
2019-03-11T02:15:25.014Z,53.71
2019-03-11T02:17:54.107Z,53.67
2019-03-11T02:20:23.279Z,53.66
2019-03-11T02:22:52.282Z,53.52
2019-03-11T02:25:21.354Z,53.26
2019-03-11T02:27:50.421Z,53.20
2019-03-11T02:30:19.449Z,53.18
2019-03-11T02:32:49.428Z,53.28
2019-03-11T02:35:27.071Z,53.18
2019-03-11T02:37:56.273Z,53.08
2019-03-11T02:40:25.400Z,52.92
2019-03-11T02:42:54.459Z,52.92
2019-03-11T02:45:23.515Z,52.89
2019-03-11T02:47:52.479Z,52.96
2019-03-11T02:50:29.595Z,52.85
2019-03-11T02:52:58.696Z,52.82
2019-03-11T02:55:27.817Z,52.66
2019-03-11T02:57:56.941Z,52.70
2019-03-11T03:00:26.059Z,52.71
2019-03-11T03:03:11.396Z,52.70
2019-03-11T03:05:49.752Z,52.67
2019-03-11T03:08:18.792Z,52.72
2019-03-11T03:10:47.898Z,52.77
2019-03-11T03:13:17.004Z,52.61
2019-03-11T03:15:46.062Z,52.56
2019-03-11T03:18:15.135Z,52.55
2019-03-11T03:20:44.256Z,52.76
2019-03-11T03:23:13.287Z,52.79
2019-03-11T03:25:42.359Z,52.71
2019-03-11T03:28:11.344Z,52.66
2019-03-11T03:30:40.384Z,52.86
2019-03-11T03:33:09.437Z,52.81
2019-03-11T03:35:38.580Z,52.78
2019-03-11T03:38:07.665Z,52.76
2019-03-11T03:40:36.785Z,52.73
2019-03-11T03:43:06.214Z,52.74
2019-03-11T03:45:42.924Z,52.82
2019-03-11T03:48:12.947Z,52.70
2019-03-11T03:50:41.957Z,52.67
2019-03-11T03:53:11.082Z,52.70
2019-03-11T03:55:40.216Z,52.64
2019-03-11T03:58:09.213Z,52.66
2019-03-11T04:00:38.262Z,52.79
2019-03-11T04:03:07.319Z,52.91
2019-03-11T04:05:36.359Z,52.94
2019-03-11T04:08:05.469Z,52.99
2019-03-11T04:10:34.472Z,53.11
2019-03-11T04:13:03.565Z,53.13
2019-03-11T04:15:32.702Z,53.09
2019-03-11T04:18:01.737Z,53.29
2019-03-11T04:20:30.849Z,53.20
2019-03-11T04:22:59.909Z,53.21
2019-03-11T04:25:30.358Z,53.08
2019-03-11T04:27:59.428Z,53.09
2019-03-11T04:30:28.462Z,52.96
2019-03-11T04:32:57.605Z,52.79
2019-03-11T04:35:26.654Z,52.88
2019-03-11T04:37:55.749Z,52.95
2019-03-11T04:40:24.779Z,52.91
2019-03-11T04:42:53.876Z,52.76
2019-03-11T04:45:23.042Z,52.73
2019-03-11T04:47:52.301Z,52.47
2019-03-11T04:50:21.418Z,52.15
2019-03-11T04:52:50.592Z,51.86
2019-03-11T04:55:19.675Z,51.65
2019-03-11T04:57:50.987Z,51.36
2019-03-11T05:00:22.123Z,51.41
2019-03-11T05:02:51.203Z,51.33
2019-03-11T05:05:20.355Z,51.24
2019-03-11T05:07:49.501Z,51.32
2019-03-11T05:10:18.567Z,51.20
2019-03-11T05:12:47.664Z,51.25
2019-03-11T05:15:16.758Z,51.29
2019-03-11T05:17:48.399Z,51.18
2019-03-11T05:20:16.626Z,51.33
2019-03-11T05:22:45.728Z,51.45
2019-03-11T05:25:14.895Z,51.55
2019-03-11T05:27:44.008Z,51.50
2019-03-11T05:30:14.719Z,51.68
2019-03-11T05:32:43.764Z,51.85
2019-03-11T05:35:12.840Z,52.04
2019-03-11T05:37:41.882Z,52.05
2019-03-11T05:40:11.669Z,52.22
2019-03-11T05:42:40.707Z,52.35
2019-03-11T05:45:11.202Z,52.37
2019-03-11T05:47:40.251Z,52.56
2019-03-11T05:50:10.871Z,52.67
2019-03-11T05:52:39.884Z,52.64
2019-03-11T05:55:09.236Z,52.67
2019-03-11T05:57:38.268Z,52.77
2019-03-11T06:00:10.422Z,52.77
2019-03-11T06:02:39.507Z,52.80
2019-03-11T06:05:08.678Z,52.89
2019-03-11T06:07:37.732Z,53.11
2019-03-11T06:10:07.332Z,53.36
2019-03-11T06:12:36.386Z,53.36
2019-03-11T06:15:06.350Z,53.39
2019-03-11T06:17:35.472Z,53.72
2019-03-11T06:20:22.360Z,53.71
2019-03-11T06:22:51.439Z,53.87
2019-03-11T06:25:21.725Z,54.01
2019-03-11T06:27:50.787Z,54.21
2019-03-11T06:30:19.937Z,54.52
2019-03-11T06:32:49.108Z,54.65
2019-03-11T06:35:18.236Z,54.91
2019-03-11T06:37:47.278Z,55.10
2019-03-11T06:40:16.353Z,55.23
2019-03-11T06:42:45.359Z,55.26
2019-03-11T06:45:14.511Z,55.36
2019-03-11T06:47:43.556Z,55.49
2019-03-11T06:50:12.647Z,55.64
2019-03-11T06:52:41.775Z,55.62
2019-03-11T06:55:11.059Z,55.62
2019-03-11T06:57:40.091Z,55.77
2019-03-11T07:00:11.126Z,55.78
2019-03-11T07:02:41.164Z,55.99
2019-03-11T07:05:19.119Z,56.25
2019-03-11T07:07:40.963Z,56.37
2019-03-11T07:10:11.135Z,56.63
2019-03-11T07:12:40.193Z,56.74
2019-03-11T07:15:09.743Z,56.94
2019-03-11T07:17:38.758Z,57.07
2019-03-11T07:20:09.348Z,57.11
2019-03-11T07:22:38.414Z,57.10
2019-03-11T07:25:08.513Z,57.14
2019-03-11T07:27:37.511Z,57.20
2019-03-11T07:30:07.441Z,57.14
2019-03-11T07:32:36.513Z,57.17
2019-03-11T07:35:08.700Z,57.23
2019-03-11T07:37:36.730Z,57.15
2019-03-11T07:40:06.477Z,57.29
2019-03-11T07:42:35.598Z,57.16
2019-03-11T07:45:04.936Z,57.01
2019-03-11T07:47:34.311Z,56.89
2019-03-11T07:50:04.000Z,56.89
2019-03-11T07:52:33.118Z,56.75
2019-03-11T07:55:02.307Z,56.76
2019-03-11T07:57:31.416Z,56.77
2019-03-11T08:00:00.587Z,56.68
2019-03-11T08:02:29.748Z,56.70
2019-03-11T08:04:58.830Z,56.67
2019-03-11T08:07:27.916Z,56.71
2019-03-11T08:09:57.047Z,56.69
2019-03-11T08:12:26.152Z,56.55
2019-03-11T08:14:55.189Z,56.50
2019-03-11T08:17:24.335Z,56.39
2019-03-11T08:19:53.462Z,56.24
2019-03-11T08:22:22.594Z,56.08
2019-03-11T08:24:51.666Z,56.01
2019-03-11T08:27:20.843Z,56.13
2019-03-11T08:29:50.803Z,56.28
2019-03-11T08:32:19.834Z,56.16
2019-03-11T08:34:48.868Z,56.27
2019-03-11T08:37:18.044Z,56.55
2019-03-11T08:39:47.096Z,56.49
2019-03-11T08:42:16.212Z,56.58
2019-03-11T08:44:45.278Z,56.46
2019-03-11T08:47:14.376Z,56.24
2019-03-11T08:49:43.463Z,56.05
2019-03-11T08:52:12.629Z,55.94
2019-03-11T08:54:41.720Z,55.87
2019-03-11T08:57:10.927Z,55.71
2019-03-11T08:59:39.958Z,55.83
2019-03-11T09:02:09.130Z,55.81
2019-03-11T09:04:38.351Z,55.75
2019-03-11T09:07:07.584Z,55.68
2019-03-11T09:09:36.826Z,55.63
2019-03-11T09:12:05.898Z,55.24
2019-03-11T09:14:35.006Z,54.51
2019-03-11T09:17:04.634Z,54.39
2019-03-11T09:19:33.825Z,54.23
2019-03-11T09:22:02.941Z,54.23
2019-03-11T09:24:32.013Z,54.09
2019-03-11T09:27:01.187Z,53.94
2019-03-11T09:29:30.332Z,54.17
2019-03-11T09:31:59.452Z,54.36
2019-03-11T09:34:28.587Z,54.43
2019-03-11T09:36:57.867Z,54.33
2019-03-11T09:39:26.945Z,54.10
2019-03-11T09:41:56.033Z,54.12
2019-03-11T09:44:25.237Z,53.67
2019-03-11T09:46:54.292Z,53.55
2019-03-11T09:49:24.937Z,53.44
2019-03-11T09:51:53.944Z,53.42
2019-03-11T09:54:23.059Z,53.30
2019-03-11T09:56:52.193Z,53.18
2019-03-11T09:59:22.430Z,53.18
2019-03-11T10:01:51.479Z,53.27
2019-03-11T10:04:20.609Z,53.30
2019-03-11T10:06:50.009Z,53.47
2019-03-11T10:09:19.135Z,53.67
2019-03-11T10:11:48.220Z,53.23
2019-03-11T10:14:17.555Z,52.62
2019-03-11T10:16:46.670Z,52.49
2019-03-11T10:19:15.921Z,52.48
2019-03-11T10:21:45.184Z,52.29
2019-03-11T10:24:14.340Z,51.91
2019-03-11T10:26:43.378Z,51.74
2019-03-11T10:29:12.471Z,51.70
2019-03-11T10:31:41.526Z,51.08
2019-03-11T10:34:10.675Z,50.74
2019-03-11T10:36:39.832Z,50.01
2019-03-11T10:39:09.062Z,49.00
2019-03-11T10:41:38.110Z,48.37
2019-03-11T10:44:07.185Z,48.15
2019-03-11T10:46:36.227Z,46.89
2019-03-11T10:49:05.350Z,46.40
2019-03-11T10:51:34.349Z,44.26
2019-03-11T10:54:03.475Z,40.97
2019-03-11T10:56:32.498Z,36.87
2019-03-11T10:59:01.607Z,34.54
2019-03-11T11:01:30.661Z,31.91
2019-03-11T11:03:59.728Z,30.65
2019-03-11T11:06:28.796Z,28.48
2019-03-11T11:08:57.818Z,26.31
2019-03-11T11:11:26.880Z,24.94
2019-03-11T11:13:55.938Z,25.41
2019-03-11T11:16:25.081Z,26.52
2019-03-11T11:18:54.173Z,28.14
2019-03-11T11:21:23.270Z,29.69
2019-03-11T11:23:52.262Z,31.58
2019-03-11T11:26:21.375Z,32.64
2019-03-11T11:28:50.423Z,33.76
2019-03-11T11:31:19.488Z,34.53
2019-03-11T11:33:48.518Z,35.44
2019-03-11T11:36:17.567Z,36.13
2019-03-11T11:38:46.641Z,36.85
2019-03-11T11:41:16.692Z,37.58
2019-03-11T11:43:45.795Z,38.26
2019-03-11T11:46:14.897Z,38.91
2019-03-11T11:48:43.914Z,39.27
2019-03-11T11:51:12.978Z,39.55
2019-03-11T11:53:42.025Z,39.75
2019-03-11T11:56:11.094Z,40.17
2019-03-11T11:58:40.957Z,40.38
2019-03-11T12:01:10.102Z,40.68
2019-03-11T12:03:39.118Z,40.59
2019-03-11T12:06:08.223Z,40.12
2019-03-11T12:08:37.208Z,39.01
2019-03-11T12:11:06.299Z,37.71
2019-03-11T12:13:35.363Z,37.59
2019-03-11T12:16:04.477Z,37.60
2019-03-11T12:18:33.541Z,37.47
2019-03-11T12:21:02.603Z,36.59
2019-03-11T12:23:31.792Z,36.41
2019-03-11T12:26:00.844Z,36.62
2019-03-11T12:28:29.936Z,36.28
2019-03-11T12:30:59.087Z,35.56
2019-03-11T12:33:28.165Z,35.46
2019-03-11T12:35:57.293Z,35.75
2019-03-11T12:38:28.682Z,35.56
2019-03-11T12:40:57.199Z,35.32
2019-03-11T12:43:26.250Z,35.84
2019-03-11T12:45:55.529Z,35.89
2019-03-11T12:48:24.573Z,36.37
2019-03-11T12:50:53.756Z,36.51
2019-03-11T12:53:22.919Z,36.89
2019-03-11T12:55:52.140Z,37.05
2019-03-11T12:58:21.466Z,37.10
2019-03-11T13:00:50.530Z,37.47
2019-03-11T13:03:19.953Z,37.39
2019-03-11T13:05:49.057Z,37.17
2019-03-11T13:08:18.241Z,37.35
2019-03-11T13:10:47.267Z,37.36
2019-03-11T13:13:19.010Z,37.32
2019-03-11T13:15:47.113Z,37.20
2019-03-11T13:18:33.382Z,37.42
2019-03-11T13:21:06.266Z,37.59
2019-03-11T13:23:35.852Z,38.10
2019-03-11T13:26:04.932Z,38.24
2019-03-11T13:28:34.044Z,38.37
2019-03-11T13:31:03.133Z,39.30
2019-03-11T13:33:33.447Z,39.97
2019-03-11T13:36:02.865Z,41.18
2019-03-11T13:38:34.378Z,42.38
2019-03-11T13:41:02.777Z,42.97
2019-03-11T13:43:31.841Z,43.03
2019-03-11T13:46:00.953Z,42.86
2019-03-11T13:48:29.976Z,42.88
2019-03-11T13:50:59.043Z,42.66
2019-03-11T13:53:28.083Z,42.70
2019-03-11T13:55:57.177Z,42.74
2019-03-11T13:58:26.782Z,42.76
2019-03-11T14:00:56.965Z,41.75
2019-03-11T14:03:26.375Z,41.44
2019-03-11T14:05:55.598Z,41.24
2019-03-11T14:08:24.649Z,41.60
2019-03-11T14:10:53.782Z,41.91
2019-03-11T14:13:23.040Z,42.36
2019-03-11T14:15:52.145Z,42.30
2019-03-11T14:18:21.150Z,42.51
2019-03-11T14:20:50.197Z,42.94
2019-03-11T14:23:19.222Z,42.18
2019-03-11T14:25:48.334Z,41.72
2019-03-11T14:28:17.346Z,41.13
2019-03-11T14:30:46.818Z,40.94
2019-03-11T14:33:15.858Z,40.79
2019-03-11T14:35:45.735Z,40.54
2019-03-11T14:38:14.811Z,40.53
2019-03-11T14:40:43.850Z,41.15
2019-03-11T14:43:12.867Z,41.55
2019-03-11T14:45:41.963Z,41.73
2019-03-11T14:48:11.031Z,41.94
2019-03-11T14:50:40.356Z,42.12
2019-03-11T14:53:09.397Z,41.92
2019-03-11T14:55:40.318Z,42.24
2019-03-11T14:58:09.413Z,42.25
2019-03-11T15:00:38.470Z,42.17
2019-03-11T15:03:07.514Z,42.00
2019-03-11T15:05:36.545Z,41.88
2019-03-11T15:08:05.563Z,41.71
2019-03-11T15:10:34.585Z,42.03
2019-03-11T15:13:03.607Z,43.09
2019-03-11T15:15:32.714Z,43.74
2019-03-11T15:18:01.769Z,44.16
2019-03-11T15:20:30.959Z,44.25
2019-03-11T15:23:06.218Z,44.28
2019-03-11T15:25:30.844Z,44.32
2019-03-11T15:27:59.967Z,44.32
2019-03-11T15:30:29.053Z,43.83
2019-03-11T15:32:58.124Z,43.30
2019-03-11T15:35:27.218Z,43.77
2019-03-11T15:37:56.410Z,44.47
2019-03-11T15:40:25.600Z,45.03
2019-03-11T15:42:54.675Z,45.23
2019-03-11T15:45:23.864Z,45.39
2019-03-11T15:47:52.912Z,45.24
2019-03-11T15:50:24.077Z,44.66
2019-03-11T15:52:53.297Z,44.58
2019-03-11T15:55:22.414Z,44.34
2019-03-11T15:57:51.649Z,44.22
2019-03-11T16:00:20.878Z,44.29
2019-03-11T16:02:50.078Z,44.33
2019-03-11T16:05:19.617Z,44.33
2019-03-11T16:07:48.825Z,44.41
2019-03-11T16:10:17.934Z,44.27
2019-03-11T16:12:47.058Z,44.44
2019-03-11T16:15:16.318Z,44.60
2019-03-11T16:17:45.470Z,44.59
2019-03-11T16:20:14.887Z,44.55
2019-03-11T16:22:44.028Z,44.69
2019-03-11T16:25:13.144Z,45.01
2019-03-11T16:27:42.231Z,45.20
2019-03-11T16:30:13.764Z,45.35
2019-03-11T16:32:57.581Z,45.49
2019-03-11T16:35:13.631Z,45.48
2019-03-11T16:37:42.860Z,45.74
2019-03-11T16:40:12.242Z,45.64
2019-03-11T16:42:41.333Z,45.81
2019-03-11T16:45:10.893Z,46.26
2019-03-11T16:47:39.959Z,46.40
2019-03-11T16:50:11.523Z,46.71
2019-03-11T16:52:40.615Z,46.77
2019-03-11T16:55:11.041Z,46.84
2019-03-11T16:57:40.115Z,46.82
2019-03-11T17:00:14.548Z,46.89
2019-03-11T17:02:43.708Z,47.24
2019-03-11T17:05:12.852Z,47.49
2019-03-11T17:07:42.062Z,47.60
2019-03-11T17:10:12.169Z,47.77
2019-03-11T17:12:41.394Z,48.08
2019-03-11T17:15:10.638Z,48.37
2019-03-11T17:17:39.786Z,48.76
2019-03-11T17:20:10.010Z,49.13
2019-03-11T17:22:39.132Z,49.83
2019-03-11T17:25:09.839Z,50.29
2019-03-11T17:27:38.936Z,50.52
2019-03-11T17:30:09.631Z,50.89
2019-03-11T17:32:38.824Z,51.32
2019-03-11T17:35:08.473Z,51.50
2019-03-11T17:37:37.611Z,52.17
2019-03-11T17:40:07.362Z,52.33
2019-03-11T17:42:36.411Z,52.65
2019-03-11T17:45:05.654Z,52.89
2019-03-11T17:47:34.769Z,53.29
2019-03-11T17:50:04.052Z,53.64
2019-03-11T17:52:33.170Z,53.52
2019-03-11T17:55:02.196Z,53.53
2019-03-11T17:57:31.263Z,53.66
2019-03-11T18:00:00.425Z,53.67
2019-03-11T18:02:29.535Z,53.64
2019-03-11T18:04:58.600Z,53.67
2019-03-11T18:07:27.696Z,53.71
2019-03-11T18:09:56.823Z,53.56
2019-03-11T18:12:25.867Z,53.54
2019-03-11T18:14:54.972Z,53.54
2019-03-11T18:17:24.059Z,53.17
2019-03-11T18:19:53.092Z,53.19
2019-03-11T18:22:22.181Z,53.09
2019-03-11T18:24:51.180Z,52.97
2019-03-11T18:27:20.447Z,52.64
2019-03-11T18:29:49.735Z,52.70
2019-03-11T18:32:18.838Z,52.59
2019-03-11T18:34:48.052Z,52.46
2019-03-11T18:37:17.358Z,52.20
2019-03-11T18:39:46.463Z,52.35
2019-03-11T18:42:24.979Z,52.86
2019-03-11T18:44:46.392Z,52.61
2019-03-11T18:47:15.422Z,52.59
2019-03-11T18:49:44.530Z,53.01
2019-03-11T18:52:13.664Z,53.20
2019-03-11T18:54:42.753Z,53.33
2019-03-11T18:57:11.868Z,53.58
2019-03-11T18:59:40.959Z,54.00
2019-03-11T19:02:10.031Z,53.99
2019-03-11T19:04:39.187Z,54.24
2019-03-11T19:07:08.272Z,54.53
2019-03-11T19:09:37.437Z,54.52
2019-03-11T19:12:06.472Z,54.68
2019-03-11T19:14:35.572Z,54.82
2019-03-11T19:17:04.602Z,54.83
2019-03-11T19:19:45.375Z,54.79
2019-03-11T19:22:04.646Z,54.86
2019-03-11T19:24:33.759Z,54.87
2019-03-11T19:27:02.888Z,54.96
2019-03-11T19:29:31.944Z,55.06
2019-03-11T19:32:01.003Z,55.06
2019-03-11T19:34:30.101Z,55.07
2019-03-11T19:36:59.318Z,55.20
2019-03-11T19:39:28.519Z,55.17
2019-03-11T19:41:57.568Z,55.13
2019-03-11T19:44:26.658Z,55.00
2019-03-11T19:46:55.722Z,54.99
2019-03-11T19:49:24.848Z,54.92
2019-03-11T19:51:53.967Z,54.81
2019-03-11T19:54:23.119Z,54.89
2019-03-11T19:56:52.202Z,54.96
2019-03-11T19:59:21.331Z,54.85
2019-03-11T20:01:50.508Z,54.80
2019-03-11T20:04:19.729Z,54.82
2019-03-11T20:06:48.962Z,54.89
2019-03-11T20:09:18.161Z,54.71
2019-03-11T20:11:47.305Z,54.64
2019-03-11T20:14:16.494Z,54.62
2019-03-11T20:16:45.646Z,54.40
2019-03-11T20:19:14.734Z,54.42
2019-03-11T20:21:43.856Z,54.39
2019-03-11T20:24:13.018Z,54.31
2019-03-11T20:26:42.114Z,54.14
2019-03-11T20:29:11.450Z,54.01
2019-03-11T20:31:40.514Z,54.06
2019-03-11T20:34:09.629Z,53.81
2019-03-11T20:36:38.601Z,53.75
2019-03-11T20:39:08.011Z,53.57
2019-03-11T20:41:37.119Z,53.32
2019-03-11T20:44:06.171Z,53.27
2019-03-11T20:46:35.312Z,53.06
2019-03-11T20:49:04.415Z,52.99
2019-03-11T20:51:33.594Z,52.89
2019-03-11T20:54:02.739Z,52.88
2019-03-11T20:56:31.772Z,52.70
2019-03-11T20:59:01.042Z,52.63
2019-03-11T21:01:30.168Z,52.50
2019-03-11T21:03:59.282Z,52.38
2019-03-11T21:06:28.284Z,52.21
2019-03-11T21:08:57.398Z,52.19
2019-03-11T21:11:26.569Z,52.11
2019-03-11T21:13:55.851Z,51.85
2019-03-11T21:16:25.106Z,51.73
2019-03-11T21:18:54.185Z,51.71
2019-03-11T21:21:23.287Z,51.52
2019-03-11T21:24:01.553Z,51.64
2019-03-11T21:26:23.130Z,51.63
2019-03-11T21:28:52.351Z,51.56
2019-03-11T21:31:21.524Z,51.62
2019-03-11T21:33:58.247Z,51.53
2019-03-11T21:36:21.380Z,51.63
2019-03-11T21:38:50.599Z,51.61
2019-03-11T21:41:19.701Z,51.66
2019-03-11T21:43:49.068Z,51.62
2019-03-11T21:46:18.128Z,51.57
2019-03-11T21:48:47.426Z,51.61
2019-03-11T21:51:16.540Z,51.57
2019-03-11T21:53:45.653Z,51.46
2019-03-11T21:56:14.725Z,51.54
2019-03-11T21:58:43.824Z,51.70
2019-03-11T22:01:13.963Z,51.72
2019-03-11T22:03:43.080Z,51.75
2019-03-11T22:06:12.576Z,51.81
2019-03-11T22:08:41.636Z,51.85
2019-03-11T22:11:10.739Z,51.85
2019-03-11T22:13:39.782Z,51.82
2019-03-11T22:16:08.826Z,51.79
2019-03-11T22:18:37.878Z,51.84
2019-03-11T22:21:06.902Z,52.04
2019-03-11T22:23:36.049Z,52.06
2019-03-11T22:26:05.214Z,52.12
2019-03-11T22:28:34.358Z,52.17
2019-03-11T22:31:03.390Z,52.09
2019-03-11T22:33:34.801Z,52.16
2019-03-11T22:36:03.184Z,52.21
2019-03-11T22:38:32.274Z,52.20
2019-03-11T22:41:01.309Z,52.18
2019-03-11T22:43:30.418Z,52.18
2019-03-11T22:45:59.497Z,52.24
2019-03-11T22:48:28.523Z,52.32
2019-03-11T22:50:57.568Z,52.44
2019-03-11T22:53:26.629Z,52.58
2019-03-11T22:55:55.646Z,52.62
2019-03-11T22:58:24.715Z,52.61
2019-03-11T23:01:05.237Z,52.71
2019-03-11T23:03:34.305Z,52.80
2019-03-11T23:06:03.331Z,52.94
2019-03-11T23:08:33.274Z,53.04
2019-03-11T23:11:02.279Z,53.11
2019-03-11T23:13:31.284Z,53.14
2019-03-11T23:16:00.376Z,53.18
2019-03-11T23:18:29.403Z,53.19
2019-03-11T23:20:58.466Z,53.24
2019-03-11T23:23:27.515Z,53.29
2019-03-11T23:25:56.622Z,53.37
2019-03-11T23:28:25.668Z,53.46
2019-03-11T23:30:54.717Z,53.56
2019-03-11T23:33:23.811Z,53.66
2019-03-11T23:35:52.860Z,53.74
2019-03-11T23:38:21.898Z,53.80
2019-03-11T23:40:51.020Z,53.87
2019-03-11T23:43:20.152Z,53.96
2019-03-11T23:45:49.303Z,53.96
2019-03-11T23:48:18.418Z,53.95
2019-03-11T23:50:47.482Z,53.99
2019-03-11T23:53:16.516Z,54.00
2019-03-11T23:55:45.635Z,54.04
2019-03-11T23:58:14.698Z,54.09
